createdAt,value
2023-01-19T00:00:28.313Z,99257.28
2023-01-19T00:02:58.399Z,99258.16
2023-01-19T00:05:28.715Z,99259.88
2023-01-19T00:07:56.781Z,99269.38
2023-01-19T00:10:24.983Z,99273.63
2023-01-19T00:12:53.173Z,99268.34
2023-01-19T00:15:22.487Z,99262.28
2023-01-19T00:17:50.648Z,99265.81
2023-01-19T00:20:19.170Z,99259.06
2023-01-19T00:22:50.952Z,99243.44
2023-01-19T00:25:19.055Z,99260.94
2023-01-19T00:27:49.979Z,99264.50
2023-01-19T00:30:18.466Z,99266.19
2023-01-19T00:32:48.046Z,99268.69
2023-01-19T00:35:16.303Z,99266.88
2023-01-19T00:37:46.836Z,99265.19
2023-01-19T00:40:15.144Z,99271.38
2023-01-19T00:42:44.479Z,99268.72
2023-01-19T00:45:14.939Z,99276.53
2023-01-19T00:47:43.304Z,99264.25
2023-01-19T00:50:14.245Z,99281.66
2023-01-19T00:52:43.018Z,99289.44
2023-01-19T00:55:12.960Z,99292.03
2023-01-19T00:57:42.229Z,99263.19
2023-01-19T01:00:13.886Z,99289.50
2023-01-19T01:02:43.903Z,99297.28
2023-01-19T01:05:14.134Z,99288.66
2023-01-19T01:07:45.463Z,99295.75
2023-01-19T01:10:15.847Z,99305.25
2023-01-19T01:12:55.891Z,99300.00
2023-01-19T01:15:29.888Z,99299.38
2023-01-19T01:17:58.166Z,99306.41
2023-01-19T01:20:31.024Z,99298.63
2023-01-19T01:22:59.660Z,99311.78
2023-01-19T01:25:31.041Z,99308.41
2023-01-19T01:28:03.106Z,99313.59
2023-01-19T01:30:31.013Z,99314.53
2023-01-19T01:32:59.633Z,99311.03
2023-01-19T01:35:27.846Z,99310.19
2023-01-19T01:38:00.588Z,99313.59
2023-01-19T01:40:31.135Z,99310.00
2023-01-19T01:42:59.688Z,99309.03
2023-01-19T01:45:33.483Z,99305.47
2023-01-19T01:48:07.435Z,99304.56
2023-01-19T01:50:38.939Z,99310.53
2023-01-19T01:53:13.337Z,99309.69
2023-01-19T01:55:48.127Z,99319.09
2023-01-19T01:58:17.507Z,99319.97
2023-01-19T02:01:03.453Z,99315.59
2023-01-19T02:03:33.092Z,99295.56
2023-01-19T02:06:04.864Z,99315.53
2023-01-19T02:08:56.911Z,99320.72
2023-01-19T02:11:42.418Z,99301.69
2023-01-19T02:14:10.548Z,99301.78
2023-01-19T02:16:39.063Z,99305.56
2023-01-19T02:19:09.865Z,99302.97
2023-01-19T02:21:43.650Z,99310.75
2023-01-19T02:24:13.818Z,99307.41
2023-01-19T02:26:45.316Z,99308.22
2023-01-19T02:29:16.294Z,99310.88
2023-01-19T02:31:45.211Z,99320.59
2023-01-19T02:34:16.613Z,99299.66
2023-01-19T02:36:51.239Z,99317.00
2023-01-19T02:39:24.683Z,99320.44
2023-01-19T02:41:56.096Z,99325.78
2023-01-19T02:44:25.596Z,99330.13
2023-01-19T02:46:55.132Z,99323.19
2023-01-19T02:49:29.359Z,99320.59
2023-01-19T02:51:57.720Z,99317.13
2023-01-19T02:54:47.420Z,99324.88
2023-01-19T02:57:34.617Z,99328.28
2023-01-19T03:00:22.756Z,99321.44
2023-01-19T03:03:03.621Z,99317.19
2023-01-19T03:05:39.417Z,99315.53
2023-01-19T03:08:16.189Z,99308.63
2023-01-19T03:10:55.109Z,99306.06
2023-01-19T03:13:31.071Z,99314.91
2023-01-19T03:16:12.790Z,99310.59
2023-01-19T03:18:43.862Z,99315.81
2023-01-19T03:21:17.358Z,99316.72
2023-01-19T03:23:47.839Z,99315.06
2023-01-19T03:26:20.450Z,99319.38
2023-01-19T03:28:50.750Z,99326.34
2023-01-19T03:31:23.943Z,99311.50
2023-01-19T03:33:56.399Z,99328.13
2023-01-19T03:36:28.445Z,99322.06
2023-01-19T03:41:50.097Z,99326.41
2023-01-19T03:44:18.230Z,99325.56
2023-01-19T03:46:48.886Z,99296.75
2023-01-19T03:49:17.423Z,99317.72
2023-01-19T03:51:46.097Z,99316.03
2023-01-19T03:54:16.311Z,99317.75
2023-01-19T03:56:45.936Z,99318.66
2023-01-19T03:59:17.353Z,99321.28
2023-01-19T04:01:45.745Z,99329.09
2023-01-19T04:04:15.471Z,99337.81
2023-01-19T04:06:46.323Z,99330.00
2023-01-19T04:09:14.358Z,99316.94
2023-01-19T04:11:42.639Z,99321.22
2023-01-19T04:14:11.928Z,99329.88
2023-01-19T04:16:40.114Z,99328.94
2023-01-19T04:19:07.995Z,99333.31
2023-01-19T04:21:36.283Z,99328.06
2023-01-19T04:24:04.469Z,99331.50
2023-01-19T04:26:35.252Z,99327.16
2023-01-19T04:29:03.144Z,99327.19
2023-01-19T04:31:33.125Z,99321.13
2023-01-19T04:34:01.069Z,99327.28
2023-01-19T04:36:31.722Z,99332.47
2023-01-19T04:38:59.627Z,99335.88
2023-01-19T04:41:31.147Z,99334.16
2023-01-19T04:43:59.701Z,99330.75
2023-01-19T04:46:27.712Z,99334.25
2023-01-19T04:48:57.395Z,99336.00
2023-01-19T04:51:28.781Z,99338.63
2023-01-19T04:53:57.897Z,99332.59
2023-01-19T04:56:28.268Z,99339.56
2023-01-19T04:58:56.366Z,99331.78
2023-01-19T05:01:24.733Z,99337.88
2023-01-19T05:03:52.957Z,99336.16
2023-01-19T05:06:24.670Z,99329.19
2023-01-19T05:08:52.998Z,99339.66
2023-01-19T05:11:23.262Z,99330.91
2023-01-19T05:13:51.601Z,99316.03
2023-01-19T05:16:19.705Z,99329.97
2023-01-19T05:18:50.445Z,99327.34
2023-01-19T05:21:18.334Z,99329.06
2023-01-19T05:23:50.355Z,99335.19
2023-01-19T05:26:20.341Z,99342.13
2023-01-19T05:28:48.934Z,99341.25
2023-01-19T05:31:20.239Z,99350.84
2023-01-19T05:33:49.778Z,99357.78
2023-01-19T05:36:17.738Z,99355.16
2023-01-19T05:38:50.233Z,99352.50
2023-01-19T05:41:18.707Z,99347.28
2023-01-19T05:43:46.846Z,99346.44
2023-01-19T05:46:15.417Z,99321.09
2023-01-19T05:48:46.147Z,99353.34
2023-01-19T05:51:15.271Z,99362.91
2023-01-19T05:53:43.427Z,99362.03
2023-01-19T05:56:13.133Z,99366.31
2023-01-19T05:58:41.176Z,99368.97
2023-01-19T06:01:11.232Z,99373.31
2023-01-19T06:03:40.137Z,99372.47
2023-01-19T06:06:10.298Z,99377.72
2023-01-19T06:08:38.182Z,99375.13
2023-01-19T06:11:07.102Z,99383.84
2023-01-19T06:13:36.482Z,99389.94
2023-01-19T06:16:04.797Z,99380.38
2023-01-19T06:18:32.871Z,99378.69
2023-01-19T06:21:04.430Z,99389.13
2023-01-19T06:23:34.005Z,99383.06
2023-01-19T06:26:02.657Z,99378.75
2023-01-19T06:28:30.671Z,99377.91
2023-01-19T06:31:03.841Z,99384.00
2023-01-19T06:33:31.960Z,99386.63
2023-01-19T06:35:59.934Z,99391.84
2023-01-19T06:38:30.232Z,99377.91
2023-01-19T06:40:59.504Z,99395.34
2023-01-19T06:43:27.981Z,99406.66
2023-01-19T06:45:56.352Z,99398.81
2023-01-19T06:48:25.755Z,99403.22
2023-01-19T06:50:53.863Z,99398.84
2023-01-19T06:53:22.542Z,99405.84
2023-01-19T06:55:50.566Z,99405.84
2023-01-19T06:58:18.644Z,99404.13
2023-01-19T07:00:46.709Z,99410.25
2023-01-19T07:03:20.744Z,99418.13
2023-01-19T07:05:52.474Z,99423.41
2023-01-19T07:08:20.650Z,99419.94
2023-01-19T07:11:25.800Z,99418.19
2023-01-19T07:13:40.860Z,99426.06
2023-01-19T07:16:11.684Z,99432.19
2023-01-19T07:18:41.049Z,99437.41
2023-01-19T07:21:12.668Z,99445.31
2023-01-19T07:23:40.778Z,99458.41
2023-01-19T07:26:09.227Z,99454.03
2023-01-19T07:28:37.613Z,99449.66
2023-01-19T07:31:06.247Z,99457.50
2023-01-19T07:33:36.480Z,99455.75
2023-01-19T07:36:08.563Z,99448.78
2023-01-19T07:38:37.975Z,99458.38
2023-01-19T07:41:08.512Z,99461.88
2023-01-19T07:43:36.919Z,99460.16
2023-01-19T07:46:07.770Z,99467.13
2023-01-19T07:48:36.090Z,99457.50
2023-01-19T07:51:10.375Z,99470.63
2023-01-19T07:53:42.371Z,99473.25
2023-01-19T07:56:13.231Z,99467.16
2023-01-19T07:58:41.308Z,99469.78
2023-01-19T08:01:10.186Z,99475.91
2023-01-19T08:03:38.655Z,99479.41
2023-01-19T08:06:07.759Z,99475.03
2023-01-19T08:08:35.887Z,99476.78
2023-01-19T08:11:05.469Z,99476.78
2023-01-19T08:13:33.365Z,99480.31
2023-01-19T08:16:01.520Z,99476.78
2023-01-19T08:18:31.917Z,99477.69
2023-01-19T08:21:02.640Z,99477.69
2023-01-19T08:23:30.754Z,99473.28
2023-01-19T08:25:58.988Z,99464.59
2023-01-19T08:28:28.815Z,99463.72
2023-01-19T08:30:56.853Z,99468.09
2023-01-19T08:33:25.981Z,99469.81
2023-01-19T08:35:56.410Z,99470.69
2023-01-19T08:38:24.772Z,99474.19
2023-01-19T08:42:46.405Z,99472.47
2023-01-19T08:45:14.673Z,99472.44
2023-01-19T08:47:42.820Z,99464.56
2023-01-19T08:50:12.366Z,99473.28
2023-01-19T08:52:40.772Z,99475.91
2023-01-19T08:55:11.227Z,99473.25
2023-01-19T08:57:42.810Z,99472.22
2023-01-19T09:00:13.716Z,99468.66
2023-01-19T09:02:41.996Z,99468.66
2023-01-19T09:05:10.285Z,99460.84
2023-01-19T09:07:38.230Z,99469.34
2023-01-19T09:10:07.644Z,99466.81
2023-01-19T09:12:35.901Z,99469.00
2023-01-19T09:15:07.206Z,99467.41
2023-01-19T09:18:16.136Z,99466.75
2023-01-19T09:20:48.039Z,99471.47
2023-01-19T09:23:17.861Z,99457.97
2023-01-19T09:25:47.921Z,99465.00
2023-01-19T09:28:18.705Z,99461.09
2023-01-19T09:30:47.226Z,99461.28
2023-01-19T09:33:17.232Z,99464.31
2023-01-19T09:35:48.456Z,99468.59
2023-01-19T09:38:17.706Z,99477.84
2023-01-19T09:40:51.711Z,99471.50
2023-01-19T09:43:33.008Z,99475.03
2023-01-19T09:46:04.798Z,99478.56
2023-01-19T09:48:45.675Z,99476.56
2023-01-19T09:51:18.595Z,99477.81
2023-01-19T09:53:55.955Z,99476.69
2023-01-19T09:56:25.180Z,99467.25
2023-01-19T09:58:55.365Z,99476.44
2023-01-19T10:01:47.746Z,99455.78
2023-01-19T10:04:31.041Z,99486.75
2023-01-19T10:07:09.965Z,99487.28
2023-01-19T10:09:50.070Z,99489.47
2023-01-19T10:12:29.839Z,99492.66
2023-01-19T10:15:05.029Z,99499.31
2023-01-19T10:17:44.535Z,99497.94
2023-01-19T10:20:19.185Z,99499.63
2023-01-19T10:22:50.776Z,99501.75
2023-01-19T10:25:23.886Z,99477.34
2023-01-19T10:27:54.813Z,99495.31
2023-01-19T10:30:26.892Z,99496.09
2023-01-19T10:32:54.931Z,99496.28
2023-01-19T10:35:25.338Z,99497.25
2023-01-19T10:37:58.535Z,99496.75
2023-01-19T10:40:29.984Z,99493.22
2023-01-19T10:42:58.874Z,99491.44
2023-01-19T10:45:30.326Z,99489.03
2023-01-19T10:48:01.075Z,99485.59
2023-01-19T10:50:31.513Z,99499.13
2023-01-19T10:53:03.808Z,99490.28
2023-01-19T10:55:38.208Z,99499.84
2023-01-19T10:58:06.935Z,99494.81
2023-01-19T11:00:38.141Z,99490.50
2023-01-19T11:03:07.140Z,99495.31
2023-01-19T11:05:36.803Z,99478.28
2023-01-19T11:08:23.523Z,99483.38
2023-01-19T11:10:54.972Z,99484.81
2023-01-19T11:13:22.958Z,99481.28
2023-01-19T11:15:57.581Z,99478.00
2023-01-19T11:18:30.619Z,99480.88
2023-01-19T11:21:03.286Z,99479.19
2023-01-19T11:23:43.038Z,99475.69
2023-01-19T11:26:16.919Z,99479.31
2023-01-19T11:28:51.328Z,99478.44
2023-01-19T11:31:31.458Z,99470.75
2023-01-19T11:34:00.997Z,99475.31
2023-01-19T11:36:31.401Z,99474.47
2023-01-19T11:39:04.070Z,99471.94
2023-01-19T11:41:35.622Z,99460.66
2023-01-19T11:44:16.023Z,99475.50
2023-01-19T11:46:49.882Z,99473.66
2023-01-19T11:49:23.085Z,99472.66
2023-01-19T11:51:58.104Z,99467.50
2023-01-19T11:54:32.598Z,99466.44
2023-01-19T11:57:02.969Z,99458.63
2023-01-19T11:59:31.083Z,99473.47
2023-01-19T12:02:03.526Z,99471.75
2023-01-19T12:04:35.565Z,99475.31
2023-01-19T12:07:09.011Z,99474.31
2023-01-19T12:09:43.537Z,99466.53
2023-01-19T12:12:18.382Z,99469.91
2023-01-19T12:14:56.876Z,99463.84
2023-01-19T12:17:28.132Z,99460.31
2023-01-19T12:20:04.727Z,99464.56
2023-01-19T12:22:40.263Z,99471.47
2023-01-19T12:25:21.746Z,99464.47
2023-01-19T12:27:52.015Z,99467.94
2023-01-19T12:30:23.290Z,99466.19
2023-01-19T12:33:03.749Z,99461.84
2023-01-19T12:36:04.080Z,99458.16
2023-01-19T12:38:40.278Z,99452.84
2023-01-19T12:41:22.144Z,99451.69
2023-01-19T12:44:06.448Z,99452.56
2023-01-19T12:46:35.057Z,99459.34
2023-01-19T12:49:08.093Z,99456.88
2023-01-19T12:51:36.257Z,99455.06
2023-01-19T12:54:08.827Z,99454.13
2023-01-19T12:56:39.694Z,99455.06
2023-01-19T12:59:08.086Z,99457.59
2023-01-19T13:01:36.126Z,99456.66
2023-01-19T13:04:09.212Z,99459.25
2023-01-19T13:07:10.571Z,99448.91
2023-01-19T13:09:40.275Z,99452.31
2023-01-19T13:12:21.204Z,99451.59
2023-01-19T13:14:50.919Z,99455.16
2023-01-19T13:17:35.363Z,99442.16
2023-01-19T13:20:24.131Z,99448.31
2023-01-19T13:23:18.100Z,99454.47
2023-01-19T13:25:50.804Z,99450.91
2023-01-19T13:28:36.506Z,99448.50
2023-01-19T13:31:05.367Z,99450.19
2023-01-19T13:33:41.172Z,99451.13
2023-01-19T13:36:23.551Z,99450.16
2023-01-19T13:38:53.368Z,99452.06
2023-01-19T13:43:48.297Z,99459.78
2023-01-19T13:46:20.093Z,99461.34
2023-01-19T13:48:56.810Z,99461.44
2023-01-19T13:51:25.081Z,99456.13
2023-01-19T13:53:57.553Z,99456.03
2023-01-19T13:56:28.898Z,99460.63
2023-01-19T13:59:07.166Z,99462.38
2023-01-19T14:01:35.365Z,99459.88
2023-01-19T14:04:03.608Z,99465.94
2023-01-19T14:06:37.680Z,99476.63
2023-01-19T14:09:19.921Z,99470.28
2023-01-19T14:12:07.405Z,99471.06
2023-01-19T14:14:37.047Z,99471.03
2023-01-19T14:17:05.538Z,99478.03
2023-01-19T14:19:49.467Z,99477.97
2023-01-19T14:22:17.495Z,99486.66
2023-01-19T14:24:45.563Z,99476.38
2023-01-19T14:27:24.221Z,99479.03
2023-01-19T14:29:55.029Z,99474.66
2023-01-19T14:32:24.357Z,99477.25
2023-01-19T14:34:54.241Z,99480.81
2023-01-19T14:37:25.402Z,99483.59
2023-01-19T14:39:59.257Z,99485.34
2023-01-19T14:42:32.112Z,99492.38
2023-01-19T14:45:04.182Z,99490.81
2023-01-19T14:47:36.724Z,99489.94
2023-01-19T14:50:19.737Z,99486.47
2023-01-19T14:52:53.484Z,99486.84
2023-01-19T14:55:27.823Z,99488.78
2023-01-19T14:57:58.061Z,99493.28
2023-01-19T15:00:28.122Z,99499.50
2023-01-19T15:02:58.653Z,99495.16
2023-01-19T15:05:26.670Z,99495.91
2023-01-19T15:07:57.326Z,99496.13
2023-01-19T15:10:26.803Z,99500.50
2023-01-19T15:12:57.642Z,99502.34
2023-01-19T15:15:31.188Z,99506.00
2023-01-19T15:18:00.103Z,99506.97
2023-01-19T15:20:30.233Z,99506.19
2023-01-19T15:22:58.361Z,99508.84
2023-01-19T15:25:26.935Z,99507.25
2023-01-19T15:27:59.502Z,99509.03
2023-01-19T15:30:30.959Z,99509.03
2023-01-19T15:32:59.398Z,99506.56
2023-01-19T15:35:27.416Z,99510.06
2023-01-19T15:37:55.607Z,99510.97
2023-01-19T15:40:23.589Z,99507.53
2023-01-19T15:42:51.859Z,99511.03
2023-01-19T15:45:35.007Z,99505.84
2023-01-19T15:48:06.126Z,99512.84
2023-01-19T15:50:35.007Z,99505.88
2023-01-19T15:53:03.341Z,99511.16
2023-01-19T15:55:31.421Z,99505.06
2023-01-19T15:58:01.773Z,99504.22
2023-01-19T16:00:31.026Z,99481.59
2023-01-19T16:03:01.787Z,99513.94
2023-01-19T16:05:42.011Z,99505.19
2023-01-19T16:08:11.947Z,99509.59
2023-01-19T16:10:40.441Z,99511.34
2023-01-19T16:13:09.522Z,99514.84
2023-01-19T16:15:38.690Z,99515.69
2023-01-19T16:18:11.244Z,99528.81
2023-01-19T16:20:39.243Z,99520.94
2023-01-19T16:23:14.883Z,99524.47
2023-01-19T16:25:43.444Z,99528.81
2023-01-19T16:28:12.031Z,99529.66
2023-01-19T16:30:40.238Z,99528.81
2023-01-19T16:33:13.952Z,99536.69
2023-01-19T16:35:42.027Z,99538.41
2023-01-19T16:38:12.689Z,99530.50
2023-01-19T16:40:40.717Z,99536.63
2023-01-19T16:43:11.563Z,99534.00
2023-01-19T16:45:57.570Z,99537.50
2023-01-19T16:48:28.321Z,99536.63
2023-01-19T16:51:01.584Z,99535.75
2023-01-19T16:53:30.144Z,99535.72
2023-01-19T16:55:58.208Z,99545.34
2023-01-19T16:58:26.636Z,99541.88
2023-01-19T17:00:54.728Z,99540.13
2023-01-19T17:03:22.979Z,99546.22
2023-01-19T17:05:55.214Z,99533.09
2023-01-19T17:08:23.585Z,99548.84
2023-01-19T17:10:51.983Z,99550.59
2023-01-19T17:13:20.361Z,99545.34
2023-01-19T17:15:48.880Z,99554.97
2023-01-19T17:18:17.178Z,99561.97
2023-01-19T17:20:45.167Z,99553.22
2023-01-19T17:23:14.798Z,99552.34
2023-01-19T17:25:42.894Z,99548.81
2023-01-19T17:28:11.152Z,99555.81
2023-01-19T17:30:39.403Z,99554.97
2023-01-19T17:33:09.833Z,99547.06
2023-01-19T17:35:38.110Z,99558.41
2023-01-19T17:38:06.140Z,99564.59
2023-01-19T17:40:35.892Z,99555.81
2023-01-19T17:43:03.940Z,99560.22
2023-01-19T17:45:32.227Z,99561.97
2023-01-19T17:48:01.153Z,99561.97
2023-01-19T17:50:30.285Z,99562.88
2023-01-19T17:52:58.414Z,99570.75
2023-01-19T17:55:26.965Z,99572.50
2023-01-19T17:57:57.768Z,99571.63
2023-01-19T18:00:28.210Z,99574.28
2023-01-19T18:02:56.627Z,99566.38
2023-01-19T18:05:26.076Z,99565.50
2023-01-19T18:07:56.884Z,99568.16
2023-01-19T18:10:25.109Z,99577.81
2023-01-19T18:12:53.337Z,99576.03
2023-01-19T18:15:23.264Z,99576.03
2023-01-19T18:17:51.490Z,99583.94
2023-01-19T18:20:19.742Z,99578.66
2023-01-19T18:22:47.793Z,99576.03
2023-01-19T18:25:16.102Z,99583.91
2023-01-19T18:27:44.152Z,99588.28
2023-01-19T18:30:13.314Z,99584.81
2023-01-19T18:32:43.081Z,99580.41
2023-01-19T18:35:11.396Z,99586.53
2023-01-19T18:37:41.789Z,99583.91
2023-01-19T18:40:12.251Z,99587.41
2023-01-19T18:45:00.526Z,99590.09
2023-01-19T18:47:28.819Z,99598.84
2023-01-19T18:49:57.181Z,99592.72
2023-01-19T18:52:25.449Z,99597.09
2023-01-19T18:54:53.853Z,99594.47
2023-01-19T18:57:22.008Z,99599.72
2023-01-19T18:59:50.353Z,99603.22
2023-01-19T19:02:20.114Z,99608.47
2023-01-19T19:04:48.316Z,99605.00
2023-01-19T19:07:16.519Z,99609.38
2023-01-19T19:09:47.184Z,99604.09
2023-01-19T19:12:17.583Z,99606.72
2023-01-19T19:14:45.875Z,99604.09
2023-01-19T19:17:14.134Z,99603.22
2023-01-19T19:19:43.610Z,99601.50
2023-01-19T19:22:12.003Z,99600.66
2023-01-19T19:24:40.304Z,99605.91
2023-01-19T19:27:14.298Z,99603.31
2023-01-19T19:29:48.786Z,99604.22
2023-01-19T19:32:20.636Z,99603.34
2023-01-19T19:34:52.745Z,99615.59
2023-01-19T19:37:21.427Z,99610.38
2023-01-19T19:39:49.947Z,99614.78
2023-01-19T19:42:20.410Z,99613.88
2023-01-19T19:44:48.726Z,99609.53
2023-01-19T19:47:17.230Z,99620.03
2023-01-19T19:49:45.411Z,99609.53
2023-01-19T19:52:15.563Z,99613.94
2023-01-19T19:54:49.108Z,99612.19
2023-01-19T19:57:17.645Z,99611.31
2023-01-19T19:59:45.921Z,99620.06
2023-01-19T20:02:14.500Z,99610.44
2023-01-19T20:04:43.095Z,99618.31
2023-01-19T20:07:11.737Z,99624.47
2023-01-19T20:09:45.320Z,99618.34
2023-01-19T20:12:14.142Z,99616.56
2023-01-19T20:14:45.263Z,99622.69
2023-01-19T20:17:14.278Z,99622.69
2023-01-19T20:19:46.411Z,99631.44
2023-01-19T20:22:17.432Z,99621.84
2023-01-19T20:24:47.390Z,99625.31
2023-01-19T20:27:16.053Z,99629.69
2023-01-19T20:29:44.112Z,99624.44
2023-01-19T20:32:12.682Z,99626.19
2023-01-19T20:34:43.246Z,99630.56
2023-01-19T20:37:12.044Z,99633.19
2023-01-19T20:39:40.167Z,99634.94
2023-01-19T20:42:12.144Z,99634.94
2023-01-19T20:44:42.892Z,99636.69
2023-01-19T20:47:11.695Z,99642.81
2023-01-19T20:49:42.080Z,99643.69
2023-01-19T20:52:12.639Z,99636.69
2023-01-19T20:54:40.785Z,99643.66
2023-01-19T20:57:10.540Z,99635.81
2023-01-19T20:59:40.843Z,99647.16
2023-01-19T21:02:14.390Z,99645.44
2023-01-19T21:04:42.665Z,99646.31
2023-01-19T21:07:13.359Z,99651.56
2023-01-19T21:09:44.260Z,99651.56
2023-01-19T21:12:15.305Z,99655.06
2023-01-19T21:14:45.958Z,99655.06
2023-01-19T21:17:14.279Z,99654.16
2023-01-19T21:19:42.540Z,99645.44
2023-01-19T21:22:10.803Z,99657.69
2023-01-19T21:24:44.387Z,99661.19
2023-01-19T21:27:14.648Z,99674.28
2023-01-19T21:29:42.615Z,99672.50
2023-01-19T21:32:10.669Z,99678.63
2023-01-19T21:34:40.923Z,99677.72
2023-01-19T21:37:09.086Z,99678.56
2023-01-19T21:39:43.075Z,99676.78
2023-01-19T21:42:11.057Z,99678.50
2023-01-19T21:44:40.841Z,99690.69
2023-01-19T21:47:11.748Z,99667.91
2023-01-19T21:49:41.647Z,99693.19
2023-01-19T21:52:10.051Z,99685.34
2023-01-19T21:54:38.315Z,99697.50
2023-01-19T21:57:06.412Z,99701.81
2023-01-19T21:59:35.325Z,99697.44
2023-01-19T22:02:08.052Z,99698.31
2023-01-19T22:04:36.645Z,99693.13
2023-01-19T22:07:04.737Z,99704.47
2023-01-19T22:09:35.028Z,99703.66
2023-01-19T22:12:04.237Z,99701.94
2023-01-19T22:14:32.606Z,99703.69
2023-01-19T22:17:00.944Z,99713.31
2023-01-19T22:19:30.776Z,99712.44
2023-01-19T22:22:01.619Z,99715.06
2023-01-19T22:24:29.883Z,99719.44
2023-01-19T22:26:57.843Z,99721.19
2023-01-19T22:29:26.479Z,99723.78
2023-01-19T22:31:54.721Z,99727.28
2023-01-19T22:34:28.337Z,99727.25
2023-01-19T22:36:57.656Z,99726.34
2023-01-19T22:39:28.470Z,99725.44
2023-01-19T22:41:58.754Z,99721.84
2023-01-19T22:44:29.306Z,99726.16
2023-01-19T22:46:57.448Z,99710.28
2023-01-19T22:49:25.892Z,99725.19
2023-01-19T22:51:55.828Z,99728.66
2023-01-19T22:54:25.510Z,99732.09
2023-01-19T22:56:53.632Z,99732.97
2023-01-19T22:59:21.580Z,99726.91
2023-01-19T23:01:50.649Z,99726.94
2023-01-19T23:04:18.666Z,99725.09
2023-01-19T23:06:50.517Z,99717.16
2023-01-19T23:09:19.589Z,99724.91
2023-01-19T23:11:50.855Z,99708.19
2023-01-19T23:14:22.983Z,99731.81
2023-01-19T23:16:51.170Z,99728.25
2023-01-19T23:19:19.583Z,99736.84
2023-01-19T23:21:52.512Z,99734.13
2023-01-19T23:24:20.452Z,99735.78
2023-01-19T23:26:51.360Z,99733.06
2023-01-19T23:29:19.930Z,99733.03
2023-01-19T23:31:53.574Z,99738.16
2023-01-19T23:34:21.506Z,99739.00
2023-01-19T23:36:49.577Z,99747.59
2023-01-19T23:39:22.994Z,99751.09
2023-01-19T23:41:54.671Z,99745.84
2023-01-19T23:46:03.949Z,99750.03
2023-01-19T23:48:35.157Z,99753.66
2023-01-19T23:51:07.144Z,99754.31
2023-01-19T23:53:35.533Z,99748.31
2023-01-19T23:56:10.397Z,99744.81
2023-01-19T23:58:38.474Z,99760.50
